Time;durP1;ratioP1;P1;durP2;ratioP2;P2;SDS_P1;SDS_P2;PMS_P1;PMS_P2;Temp;Humidity;BMP_temperature;BMP_pressure;BME280_temperature;BME280_humidity;BME280_pressure;Samples;Min_cycle;Max_cycle;Signal;HPM_P1;HPM_P2
2023/11/15 00:00:51;;;;;;;2.83;0.60;;;;;;;7.72;100.00;92723.75;2089855;28;20029;-78
2023/11/15 00:01:52;;;;;;;4.88;0.73;;;;;;;7.77;100.00;92717.94;2090052;28;20029;-78
2023/11/15 00:02:53;;;;;;;3.20;0.80;;;;;;;7.75;100.00;92712.28;2097631;28;20025;-80
2023/11/15 00:04:20;;;;;;;1.67;0.50;;;;;;;7.76;100.00;92705.81;2106451;28;20020;-80
2023/11/15 00:05:40;;;;;;;2.35;0.45;;;;;;;7.70;100.00;92716.19;2105976;28;20039;-79
2023/11/15 00:06:42;;;;;;;2.92;0.80;;;;;;;7.65;100.00;92711.34;2100075;28;20158;-80
2023/11/15 00:07:44;;;;;;;1.05;0.43;;;;;;;7.54;100.00;92718.72;2103082;28;20047;-79
2023/11/15 00:08:45;;;;;;;1.65;0.70;;;;;;;7.55;100.00;92726.31;2107338;28;20032;-78
2023/11/15 00:09:47;;;;;;;3.05;1.05;;;;;;;7.55;100.00;92726.31;2107331;28;20024;-80
2023/11/15 00:13:10;;;;;;;3.15;0.73;;;;;;;7.77;100.00;92717.94;2106646;28;20350;-81
2023/11/15 00:14:11;;;;;;;3.78;0.73;;;;;;;7.94;100.00;92708.16;2106225;28;20569;-79
2023/11/15 00:15:13;;;;;;;4.95;0.60;;;;;;;7.97;100.00;92708.09;2107250;28;20064;-77
2023/11/15 00:16:15;;;;;;;1.38;0.57;;;;;;;7.83;100.00;92713.69;2106478;28;20426;-81
2023/11/15 00:17:19;;;;;;;0.40;0.40;;;;;;;7.79;100.00;92705.75;2106682;28;20089;-78
2023/11/15 00:20:26;;;;;;;3.17;0.70;;;;;;;7.76;100.00;92719.13;2105838;28;20028;-78
2023/11/15 00:21:54;;;;;;;1.80;0.47;;;;;;;7.89;100.00;92728.00;2100467;28;20051;-80
2023/11/15 00:22:55;;;;;;;;;;;;;;;7.73;100.00;92718.03;2106811;28;20074;-81
2023/11/15 00:24:51;;;;;;;1.67;0.68;;;;;;;7.78;100.00;92730.13;2106817;28;19957;-78
2023/11/15 00:25:52;;;;;;;4.47;0.57;;;;;;;7.70;100.00;92726.06;2114961;28;20649;-79
2023/11/15 00:26:53;;;;;;;1.42;0.40;;;;;;;7.89;100.00;92728.00;2114864;28;20032;-79
2023/11/15 00:27:56;;;;;;;4.68;0.77;;;;;;;7.73;100.00;92718.03;2106502;28;20129;-80
2023/11/15 00:28:57;;;;;;;3.47;1.20;;;;;;;7.65;100.00;92718.56;2098631;28;20527;-79
2023/11/15 00:29:58;;;;;;;2.40;0.57;;;;;;;7.69;100.00;92708.63;2097286;28;20198;-80
2023/11/15 00:30:59;;;;;;;2.58;0.90;;;;;;;7.65;100.00;92715.91;2098356;28;20401;-78
2023/11/15 00:32:00;;;;;;;1.52;0.73;;;;;;;7.60;100.00;92727.75;2097995;28;20025;-81
2023/11/15 00:33:01;;;;;;;2.05;0.60;;;;;;;7.53;100.00;92736.59;2097590;28;20552;-77
2023/11/15 00:34:05;;;;;;;2.72;0.57;;;;;;;7.58;100.00;92746.75;2106386;28;20024;-80
2023/11/15 00:35:06;;;;;;;3.58;0.73;;;;;;;7.45;100.00;92753.81;2106104;28;20020;-81
2023/11/15 00:36:11;;;;;;;0.57;0.52;;;;;;;7.45;100.00;92764.47;2106129;28;20016;-80
2023/11/15 00:39:10;;;;;;;1.02;0.40;;;;;;;7.64;100.00;92751.63;2106794;28;20380;-77
2023/11/15 00:40:13;;;;;;;1.05;0.40;;;;;;;7.40;100.00;92748.97;2107096;28;20474;-80
2023/11/15 00:41:32;;;;;;;0.68;0.35;;;;;;;7.65;100.00;92753.16;2081087;28;20364;-81
2023/11/15 00:42:33;;;;;;;1.52;0.50;;;;;;;7.50;100.00;92756.00;2093149;28;20093;-78
2023/11/15 00:43:34;;;;;;;0.40;0.40;;;;;;;7.53;100.00;92755.22;2097879;28;20047;-80
2023/11/15 00:44:35;;;;;;;1.35;0.57;;;;;;;7.54;100.00;92754.06;2089436;28;20028;-79
2023/11/15 00:45:36;;;;;;;2.33;0.40;;;;;;;7.67;100.00;92750.81;2089657;28;20025;-78
2023/11/15 00:46:37;;;;;;;0.40;0.40;;;;;;;7.48;100.00;92761.00;2098049;28;20025;-80
2023/11/15 00:47:38;;;;;;;1.55;0.57;;;;;;;7.57;100.00;92771.88;2106990;28;20024;-79
2023/11/15 00:48:42;;;;;;;2.80;0.47;;;;;;;7.62;100.00;92765.34;2097944;28;20016;-80
2023/11/15 00:49:44;;;;;;;1.83;0.40;;;;;;;7.50;100.00;92764.00;2082466;28;20061;-78
2023/11/15 00:50:45;;;;;;;1.42;0.50;;;;;;;7.41;100.00;92778.97;2097293;28;20469;-78
2023/11/15 00:51:46;;;;;;;2.22;0.60;;;;;;;7.60;100.00;92772.22;2097873;28;20016;-79
2023/11/15 00:52:47;;;;;;;2.53;0.90;;;;;;;7.60;100.00;92772.97;2089600;28;20425;-80
2023/11/15 00:53:47;;;;;;;3.60;0.57;;;;;;;7.58;100.00;92773.38;2089690;28;20025;-78
2023/11/15 00:54:48;;;;;;;1.10;0.40;;;;;;;7.57;100.00;92787.81;2089686;28;20025;-79
2023/11/15 00:55:49;;;;;;;1.77;0.68;;;;;;;7.58;100.00;92784.00;2089575;28;20131;-82
2023/11/15 00:56:51;;;;;;;2.65;0.50;;;;;;;7.42;100.00;92789.22;2089651;28;20074;-80
2023/11/15 00:57:52;;;;;;;0.82;0.60;;;;;;;7.45;100.00;92777.00;2089479;28;20055;-78
2023/11/15 00:58:54;;;;;;;2.85;0.57;;;;;;;7.36;100.00;92792.72;2097859;28;20032;-80
2023/11/15 00:59:55;;;;;;;3.65;0.60;;;;;;;7.31;100.00;92777.97;2103855;28;20447;-79
2023/11/15 01:00:56;;;;;;;0.98;0.60;;;;;;;7.30;100.00;92784.44;2097784;28;20040;-77
2023/11/15 01:01:58;;;;;;;2.38;0.57;;;;;;;7.37;100.00;92791.56;2105500;28;20077;-78
2023/11/15 01:02:59;;;;;;;1.70;0.82;;;;;;;7.36;100.00;92785.50;2101025;28;20081;-78
2023/11/15 01:04:00;;;;;;;3.90;0.85;;;;;;;7.69;100.00;92794.50;2102697;28;20028;-80
2023/11/15 01:05:00;;;;;;;3.33;0.73;;;;;;;7.52;100.00;92792.84;2104321;28;20024;-81
2023/11/15 01:06:02;;;;;;;3.83;0.60;;;;;;;7.51;100.00;92789.44;2114363;28;20084;-80
2023/11/15 01:07:03;;;;;;;3.72;0.70;;;;;;;7.42;100.00;92799.84;2115166;28;20020;-80
2023/11/15 01:08:04;;;;;;;3.13;0.68;;;;;;;7.44;100.00;92802.09;2115084;28;20031;-81
2023/11/15 01:09:08;;;;;;;5.10;0.65;;;;;;;7.50;100.00;92792.50;2106179;28;20020;-78
2023/11/15 01:10:09;;;;;;;4.55;0.80;;;;;;;7.45;100.00;92801.69;2106064;28;20028;-80
2023/11/15 01:11:10;;;;;;;4.85;0.80;;;;;;;7.23;100.00;92800.50;2089678;28;20065;-79
2023/11/15 01:12:11;;;;;;;7.15;0.60;;;;;;;7.26;100.00;92781.09;2089201;28;20025;-80
2023/11/15 01:13:14;;;;;;;0.95;0.52;;;;;;;7.20;100.00;92791.44;2097766;28;20020;-81
2023/11/15 01:14:26;;;;;;;2.50;0.55;;;;;;;7.20;100.00;92782.69;2105231;28;20027;-78
2023/11/15 01:15:27;;;;;;;3.00;0.75;;;;;;;7.25;100.00;92790.97;2097666;28;20024;-80
2023/11/15 01:16:29;;;;;;;1.63;0.60;;;;;;;7.30;100.00;92800.41;2097789;28;20070;-80
2023/11/15 01:17:34;;;;;;;2.25;0.57;;;;;;;7.24;100.00;92791.34;2105172;28;20464;-81
2023/11/15 01:18:35;;;;;;;3.00;0.82;;;;;;;7.38;100.00;92790.41;2105968;28;20028;-79
2023/11/15 01:19:36;;;;;;;2.13;0.60;;;;;;;7.28;100.00;92786.75;2089556;28;20362;-79
2023/11/15 01:20:37;;;;;;;0.82;0.60;;;;;;;7.17;100.00;92786.16;2081407;28;20021;-79
2023/11/15 01:21:38;;;;;;;4.18;0.70;;;;;;;7.14;100.00;92781.63;2097811;28;20085;-81
2023/11/15 01:22:39;;;;;;;3.72;0.60;;;;;;;7.30;100.00;92787.09;2097537;28;20038;-80
2023/11/15 01:23:40;;;;;;;2.90;0.60;;;;;;;7.45;100.00;92780.41;2097654;28;20020;-80
2023/11/15 01:24:41;;;;;;;1.23;0.50;;;;;;;7.37;100.00;92791.56;2097660;28;20040;-77
2023/11/15 01:25:43;;;;;;;5.00;0.60;;;;;;;7.35;100.00;92783.25;2089365;28;20052;-79
2023/11/15 01:26:44;;;;;;;4.15;0.73;;;;;;;7.37;100.00;92784.31;2101772;28;20459;-81
2023/11/15 01:27:46;;;;;;;0.60;0.50;;;;;;;7.36;100.00;92785.50;2106570;28;20070;-78
2023/11/15 01:28:47;;;;;;;3.28;0.65;;;;;;;7.19;100.00;92789.91;2105952;28;20026;-79
2023/11/15 01:29:49;;;;;;;0.95;0.50;;;;;;;7.27;100.00;92787.91;2105386;28;20026;-79
2023/11/15 01:30:50;;;;;;;4.88;1.05;;;;;;;7.23;100.00;92797.84;2097530;28;20025;-79
2023/11/15 01:31:51;;;;;;;3.20;0.90;;;;;;;7.10;100.00;92794.97;2104767;28;20043;-80
2023/11/15 01:32:52;;;;;;;1.73;0.68;;;;;;;7.10;100.00;92786.25;2104607;28;20020;-78
2023/11/15 01:33:53;;;;;;;0.93;0.63;;;;;;;7.02;100.00;92794.34;2096771;28;20021;-79
2023/11/15 01:34:54;;;;;;;2.15;0.70;;;;;;;7.13;100.00;92804.81;2093248;28;20493;-81
2023/11/15 01:35:55;;;;;;;1.02;0.45;;;;;;;7.06;100.00;92792.34;2096217;28;20077;-78
2023/11/15 01:36:56;;;;;;;1.67;0.75;;;;;;;6.94;100.00;92794.84;2097533;28;20028;-79
2023/11/15 01:37:57;;;;;;;1.58;0.60;;;;;;;7.03;100.00;92808.38;2097549;28;20461;-79
2023/11/15 01:38:58;;;;;;;2.50;0.63;;;;;;;7.04;100.00;92809.88;2105129;28;20024;-79
2023/11/15 01:40:01;;;;;;;0.60;0.60;;;;;;;7.18;100.00;92811.59;2106412;28;20048;-79
2023/11/15 01:41:05;;;;;;;2.97;0.70;;;;;;;7.21;100.00;92816.09;2105904;28;20032;-81
2023/11/15 01:42:44;;;;;;;3.70;0.60;;;;;;;7.04;100.00;92818.59;2089162;28;20492;-79
2023/11/15 01:43:45;;;;;;;3.45;0.65;;;;;;;7.04;100.00;92815.94;2091340;28;20108;-79
2023/11/15 01:44:47;;;;;;;2.33;0.90;;;;;;;7.02;100.00;92820.13;2097360;28;20385;-78
2023/11/15 01:45:48;;;;;;;5.78;1.25;;;;;;;7.08;100.00;92823.88;2105885;28;20053;-79
2023/11/15 01:46:51;;;;;;;1.23;0.60;;;;;;;7.27;100.00;92827.78;2105935;28;20452;-77
2023/11/15 01:47:53;;;;;;;1.30;0.57;;;;;;;7.26;100.00;92818.31;2097809;28;20115;-81
2023/11/15 01:48:55;;;;;;;2.38;0.45;;;;;;;7.17;100.00;92818.81;2105844;28;20016;-79
2023/11/15 01:49:57;;;;;;;2.97;0.50;;;;;;;7.15;100.00;92828.31;2105841;28;20057;-78
2023/11/15 01:51:00;;;;;;;3.13;0.70;;;;;;;7.17;100.00;92831.34;2103633;28;20031;-80
2023/11/15 01:52:01;;;;;;;1.17;0.60;;;;;;;7.22;100.00;92830.91;2097311;28;20595;-78
2023/11/15 01:53:02;;;;;;;3.20;0.50;;;;;;;7.32;100.00;92829.97;2097438;28;20020;-78
2023/11/15 01:54:05;;;;;;;2.08;0.60;;;;;;;7.35;100.00;92829.19;2089246;28;20032;-81
2023/11/15 01:55:13;;;;;;;4.20;0.70;;;;;;;7.29;100.00;92830.81;2089853;28;20484;-78
2023/11/15 01:56:14;;;;;;;2.65;0.63;;;;;;;6.99;100.00;92831.59;2104704;28;20385;-78
2023/11/15 01:57:15;;;;;;;5.93;0.88;;;;;;;6.86;100.00;92838.59;2098121;28;20649;-78
2023/11/15 01:58:17;;;;;;;0.82;0.40;;;;;;;7.01;100.00;92834.59;2089162;28;20049;-78
2023/11/15 01:59:18;;;;;;;4.90;0.80;;;;;;;6.99;100.00;92836.91;2082006;28;20502;-79
2023/11/15 02:00:19;;;;;;;1.10;0.40;;;;;;;7.04;100.00;92823.16;2097611;28;20082;-79
2023/11/15 02:02:13;;;;;;;2.42;0.55;;;;;;;6.95;100.00;92831.63;2097285;28;20024;-78
2023/11/15 02:03:51;;;;;;;1.70;0.47;;;;;;;7.09;100.00;92827.28;2104171;28;20028;-81
2023/11/15 02:04:52;;;;;;;0.60;0.40;;;;;;;7.07;100.00;92833.00;2095412;28;20033;-79
2023/11/15 02:06:46;;;;;;;1.67;0.60;;;;;;;6.88;100.00;92823.72;2092873;28;20509;-81
2023/11/15 02:07:48;;;;;;;2.78;0.73;;;;;;;6.99;100.00;92835.00;2096248;28;20024;-81
2023/11/15 02:10:46;;;;;;;4.07;0.70;;;;;;;7.04;100.00;92818.59;2098590;28;20032;-80
2023/11/15 02:11:47;;;;;;;3.17;0.52;;;;;;;7.04;100.00;92823.16;2103065;28;20020;-81
2023/11/15 02:12:48;;;;;;;0.60;0.50;;;;;;;7.03;100.00;92819.75;2105446;28;20032;-81
2023/11/15 02:13:49;;;;;;;3.65;0.52;;;;;;;7.11;100.00;92827.63;2097426;28;20116;-80
2023/11/15 02:14:50;;;;;;;3.22;0.55;;;;;;;7.08;100.00;92826.53;2096486;28;20404;-78
2023/11/15 02:15:58;;;;;;;3.53;0.50;;;;;;;7.05;100.00;92832.63;2096969;28;20029;-78
2023/11/15 02:18:56;;;;;;;1.58;0.50;;;;;;;6.97;100.00;92842.59;2097865;28;20347;-79
2023/11/15 02:19:57;;;;;;;3.25;0.73;;;;;;;6.91;100.00;92838.88;2104223;28;20349;-79
2023/11/15 02:20:58;;;;;;;5.35;0.90;;;;;;;6.81;100.00;92837.13;2097174;28;20104;-81
2023/11/15 02:21:59;;;;;;;1.15;0.52;;;;;;;6.98;100.00;92843.34;2089139;28;20079;-79
2023/11/15 02:23:02;;;;;;;1.88;0.60;;;;;;;6.99;100.00;92845.63;2097134;28;20041;-78
2023/11/15 02:24:13;;;;;;;3.38;0.70;;;;;;;6.94;100.00;92851.38;2113657;28;20058;-81
2023/11/15 02:25:35;;;;;;;3.15;0.98;;;;;;;7.09;100.00;92849.28;2099577;28;20052;-81
2023/11/15 02:26:36;;;;;;;3.53;0.60;;;;;;;7.15;100.00;92842.34;2105055;28;20411;-78
2023/11/15 02:27:37;;;;;;;1.60;0.50;;;;;;;7.21;100.00;92842.69;2105739;28;20102;-80
2023/11/15 02:28:39;;;;;;;2.88;1.05;;;;;;;7.17;100.00;92849.94;2106289;28;20020;-79
2023/11/15 02:29:39;;;;;;;6.18;0.60;;;;;;;7.14;100.00;92856.06;2108285;28;20529;-81
2023/11/15 02:30:40;;;;;;;4.32;0.80;;;;;;;7.15;100.00;92853.00;2098860;28;20029;-79
2023/11/15 02:31:44;;;;;;;2.28;0.82;;;;;;;7.18;100.00;92862.09;2105232;28;20384;-79
2023/11/15 02:33:04;;;;;;;2.75;0.82;;;;;;;7.19;100.00;92855.59;2112826;28;20134;-79
2023/11/15 02:34:05;;;;;;;;;;;;;;;7.12;100.00;92853.06;2105158;28;20099;-81
2023/11/15 02:35:31;;;;;;;3.95;0.68;;;;;;;7.11;100.00;92856.84;2105186;28;19908;-81
2023/11/15 02:36:38;;;;;;;2.25;0.50;;;;;;;7.05;100.00;92861.88;2101234;28;20043;-81
2023/11/15 02:37:39;;;;;;;6.03;0.80;;;;;;;7.10;100.00;92861.41;2098196;28;20021;-79
2023/11/15 02:38:40;;;;;;;6.78;0.80;;;;;;;7.11;100.00;92867.47;2104782;28;20554;-80
2023/11/15 02:39:41;;;;;;;2.55;0.63;;;;;;;7.07;100.00;92870.22;2105592;28;20046;-78
2023/11/15 02:40:42;;;;;;;4.85;0.95;;;;;;;7.05;100.00;92869.84;2105543;28;20028;-79
2023/11/15 02:41:43;;;;;;;1.77;0.50;;;;;;;7.12;100.00;92866.34;2097292;28;20493;-79
2023/11/15 02:42:44;;;;;;;3.90;0.82;;;;;;;7.11;100.00;92878.84;2097068;28;20140;-80
2023/11/15 02:43:45;;;;;;;4.22;0.45;;;;;;;7.08;100.00;92871.72;2097182;28;20033;-79
2023/11/15 02:44:46;;;;;;;4.32;1.00;;;;;;;7.02;100.00;92875.94;2088927;28;20028;-78
2023/11/15 02:45:47;;;;;;;4.32;0.70;;;;;;;7.03;100.00;92869.50;2089059;28;20029;-80
2023/11/15 02:46:51;;;;;;;2.33;0.70;;;;;;;7.19;100.00;92884.84;2088992;28;20025;-80
2023/11/15 02:47:52;;;;;;;6.20;0.63;;;;;;;7.09;100.00;92881.19;2098228;28;20033;-78
2023/11/15 02:48:53;;;;;;;2.90;0.98;;;;;;;7.17;100.00;92881.84;2105557;28;20085;-78
2023/11/15 02:49:54;;;;;;;2.42;0.65;;;;;;;7.37;100.00;92884.63;2097202;28;20104;-81
2023/11/15 02:51:06;;;;;;;2.22;0.55;;;;;;;7.17;100.00;92890.56;2104781;28;20048;-80
2023/11/15 02:52:07;;;;;;;3.25;0.75;;;;;;;7.09;100.00;92893.72;2105751;28;20016;-78
2023/11/15 02:53:08;;;;;;;4.30;0.75;;;;;;;7.14;100.00;92890.59;2106247;28;20070;-77
2023/11/15 02:54:09;;;;;;;3.72;0.50;;;;;;;7.13;100.00;92887.19;2105633;28;20031;-77
2023/11/15 02:55:10;;;;;;;1.52;0.68;;;;;;;7.01;100.00;92891.13;2097202;28;20013;-80
2023/11/15 02:56:11;;;;;;;4.07;0.50;;;;;;;6.91;100.00;92894.69;2097226;28;20039;-81
2023/11/15 02:57:18;;;;;;;4.50;0.70;;;;;;;6.80;100.00;92884.19;2105563;28;20020;-79
2023/11/15 02:58:19;;;;;;;2.90;0.50;;;;;;;6.92;100.00;92892.78;2105514;28;20059;-77
2023/11/15 02:59:20;;;;;;;1.33;0.47;;;;;;;7.03;100.00;92883.53;2088283;28;20025;-77
2023/11/15 03:00:21;;;;;;;1.45;0.40;;;;;;;7.20;100.00;92896.97;2088898;28;20543;-80
2023/11/15 03:01:22;;;;;;;0.73;0.50;;;;;;;7.05;100.00;92883.88;2097091;28;20032;-78
2023/11/15 03:02:22;;;;;;;0.88;0.40;;;;;;;7.02;100.00;92887.34;2099292;28;20570;-77
2023/11/15 03:03:23;;;;;;;2.65;0.63;;;;;;;7.07;100.00;92884.25;2105249;28;20016;-77
2023/11/15 03:04:24;;;;;;;2.17;0.60;;;;;;;7.09;100.00;92891.81;2105943;28;20020;-78
2023/11/15 03:07:30;;;;;;;1.33;0.47;;;;;;;7.14;100.00;92896.69;2071919;28;20046;-79
2023/11/15 03:08:31;;;;;;;2.20;0.50;;;;;;;7.03;100.00;92893.41;2071940;28;20116;-77
2023/11/15 03:09:32;;;;;;;1.42;0.40;;;;;;;7.15;100.00;92895.53;2089423;28;20122;-77
2023/11/15 03:10:33;;;;;;;2.30;0.57;;;;;;;7.01;100.00;92904.41;2097167;28;20503;-77
2023/11/15 03:11:35;;;;;;;1.13;0.45;;;;;;;6.96;100.00;92894.22;2105479;28;20020;-79
2023/11/15 03:12:36;;;;;;;2.05;0.50;;;;;;;7.00;100.00;92894.94;2097046;28;20032;-78
2023/11/15 03:13:37;;;;;;;5.45;0.80;;;;;;;6.95;100.00;92898.06;2088796;28;20436;-79
2023/11/15 03:15:31;;;;;;;3.97;0.60;;;;;;;6.71;100.00;92894.50;2088950;28;20087;-80
2023/11/15 03:16:32;;;;;;;0.63;0.60;;;;;;;6.66;100.00;92884.31;2095929;28;20032;-78
2023/11/15 03:19:30;;;;;;;1.80;0.50;;;;;;;6.83;100.00;92882.63;2106134;28;20024;-80
2023/11/15 03:22:28;;;;;;;4.75;0.70;;;;;;;6.82;100.00;92907.69;2103928;28;20077;-78
2023/11/15 03:23:29;;;;;;;1.17;0.40;;;;;;;6.84;100.00;92894.75;2105743;28;20162;-81
2023/11/15 03:24:32;;;;;;;1.10;0.50;;;;;;;6.72;100.00;92887.31;2106069;28;20049;-77
2023/11/15 03:27:30;;;;;;;0.65;0.40;;;;;;;6.79;100.00;92895.19;2104676;28;20529;-77
2023/11/15 03:28:31;;;;;;;1.60;0.32;;;;;;;6.84;100.00;92888.69;2106735;28;20028;-80
2023/11/15 03:29:32;;;;;;;4.45;1.10;;;;;;;6.72;100.00;92880.09;2106270;28;20028;-79
2023/11/15 03:30:33;;;;;;;2.95;0.60;;;;;;;6.79;100.00;92885.31;2098628;28;20048;-80
2023/11/15 03:31:34;;;;;;;3.05;0.80;;;;;;;6.78;100.00;92896.34;2106832;28;20435;-80
2023/11/15 03:32:35;;;;;;;5.97;0.55;;;;;;;6.81;100.00;92888.34;2106554;28;20837;-81
2023/11/15 03:33:36;;;;;;;4.25;0.80;;;;;;;6.90;100.00;92895.09;2106716;28;20058;-78
2023/11/15 03:34:40;;;;;;;2.53;0.60;;;;;;;6.83;100.00;92893.25;2106573;28;20020;-80
2023/11/15 03:35:41;;;;;;;1.23;0.60;;;;;;;6.91;100.00;92893.94;2098005;28;20439;-79
2023/11/15 03:37:10;;;;;;;3.30;0.70;;;;;;;6.80;100.00;92894.03;2098358;28;20024;-79
2023/11/15 03:38:14;;;;;;;3.70;0.73;;;;;;;6.90;100.00;92901.16;2094216;28;20037;-77
2023/11/15 03:39:17;;;;;;;1.20;0.80;;;;;;;6.82;100.00;92897.81;2090101;28;20068;-77
2023/11/15 03:40:21;;;;;;;4.05;0.73;;;;;;;6.91;100.00;92907.22;2090497;28;20019;-78
2023/11/15 03:41:22;;;;;;;2.65;0.68;;;;;;;7.02;100.00;92905.16;2090841;28;20056;-79
2023/11/15 03:42:26;;;;;;;3.80;0.55;;;;;;;6.95;100.00;92903.38;2100325;28;20044;-79
2023/11/15 03:43:27;;;;;;;3.90;0.50;;;;;;;6.92;100.00;92901.50;2107436;28;20031;-79
2023/11/15 03:44:28;;;;;;;3.33;0.68;;;;;;;6.88;100.00;92908.75;2107434;28;20439;-76
2023/11/15 03:47:37;;;;;;;2.15;0.70;;;;;;;6.93;100.00;92916.28;2107473;28;20074;-80
2023/11/15 03:49:13;;;;;;;4.15;0.98;;;;;;;7.14;100.00;92909.22;2107274;28;20016;-79
2023/11/15 03:50:36;;;;;;;1.80;0.60;;;;;;;7.00;100.00;92910.88;2090195;28;20025;-77
2023/11/15 03:53:34;;;;;;;3.03;0.50;;;;;;;6.98;100.00;92918.53;2102533;28;20020;-79
2023/11/15 03:54:36;;;;;;;1.42;0.50;;;;;;;6.97;100.00;92919.66;2106821;28;20016;-80
2023/11/15 03:55:37;;;;;;;1.88;0.70;;;;;;;7.10;100.00;92921.78;2106667;28;20016;-79
2023/11/15 03:56:38;;;;;;;3.92;0.70;;;;;;;7.10;100.00;92919.13;2098335;28;20028;-77
2023/11/15 03:57:39;;;;;;;4.40;0.80;;;;;;;7.02;100.00;92913.91;2090186;28;20024;-80
2023/11/15 03:59:11;;;;;;;4.45;0.77;;;;;;;7.14;100.00;92920.59;2098090;28;20027;-78
2023/11/15 04:00:13;;;;;;;2.30;0.77;;;;;;;7.02;100.00;92918.44;2104944;28;20019;-79
2023/11/15 04:01:14;;;;;;;2.08;0.52;;;;;;;7.09;100.00;92915.72;2107121;28;20020;-79
2023/11/15 04:02:15;;;;;;;6.28;0.73;;;;;;;6.97;100.00;92918.91;2098080;28;20032;-78
2023/11/15 04:03:17;;;;;;;2.08;0.73;;;;;;;7.05;100.00;92915.75;2097259;28;20048;-78
2023/11/15 04:04:18;;;;;;;6.10;0.82;;;;;;;7.05;100.00;92918.41;2106051;28;20024;-78
2023/11/15 04:05:19;;;;;;;5.55;0.70;;;;;;;7.01;100.00;92908.97;2106890;28;20055;-76
2023/11/15 04:06:20;;;;;;;3.97;0.75;;;;;;;7.09;100.00;92915.72;2106077;28;20499;-80
2023/11/15 04:07:21;;;;;;;4.85;0.80;;;;;;;7.17;100.00;92917.16;2098301;28;20153;-79
2023/11/15 04:10:19;;;;;;;1.27;0.55;;;;;;;6.86;100.00;92918.28;2107190;28;20022;-79
2023/11/15 04:11:22;;;;;;;6.43;0.80;;;;;;;7.01;100.00;92915.03;2098187;28;20443;-80
2023/11/15 04:12:23;;;;;;;7.18;0.85;;;;;;;6.88;100.00;92908.75;2090186;28;20033;-80
2023/11/15 04:13:24;;;;;;;3.50;0.60;;;;;;;6.89;100.00;92912.16;2098061;28;20100;-78
2023/11/15 04:14:25;;;;;;;1.60;0.70;;;;;;;6.63;100.00;92911.69;2098197;28;20031;-78
2023/11/15 04:15:26;;;;;;;4.38;0.60;;;;;;;7.19;100.00;92914.09;2097648;28;20024;-77
2023/11/15 04:16:27;;;;;;;8.57;1.20;;;;;;;6.98;100.00;92918.53;2106584;28;20032;-78
2023/11/15 04:17:28;;;;;;;4.00;0.68;;;;;;;7.03;100.00;92909.34;2098192;28;20029;-78
2023/11/15 04:18:33;;;;;;;2.00;0.70;;;;;;;6.82;100.00;92907.69;2098289;28;20024;-80
2023/11/15 04:19:34;;;;;;;4.97;0.93;;;;;;;6.73;100.00;92902.09;2106884;28;20484;-79
2023/11/15 04:20:35;;;;;;;2.65;1.08;;;;;;;6.77;100.00;92905.47;2106577;28;20032;-76
2023/11/15 04:21:36;;;;;;;8.60;0.85;;;;;;;6.74;100.00;92901.69;2106427;28;20016;-78
2023/11/15 04:23:03;;;;;;;5.28;0.70;;;;;;;6.68;100.00;92907.84;2106373;28;20024;-79
2023/11/15 04:24:04;;;;;;;2.92;0.80;;;;;;;6.57;100.00;92910.59;2106609;28;20016;-80
2023/11/15 04:25:08;;;;;;;4.38;0.85;;;;;;;6.69;100.00;92914.66;2097498;28;20028;-79
2023/11/15 04:26:38;;;;;;;2.42;0.60;;;;;;;6.72;100.00;92911.97;2098364;28;20025;-78
2023/11/15 04:27:39;;;;;;;3.28;0.85;;;;;;;6.73;100.00;92913.47;2105798;28;20114;-78
2023/11/15 04:28:48;;;;;;;5.32;0.90;;;;;;;6.75;100.00;92915.72;2106514;28;20933;-77
2023/11/15 04:29:53;;;;;;;5.30;0.80;;;;;;;6.78;100.00;92923.66;2105780;28;20496;-79
2023/11/15 04:30:54;;;;;;;1.70;0.80;;;;;;;6.84;100.00;92902.72;2106483;28;20024;-77
2023/11/15 04:31:54;;;;;;;3.75;0.88;;;;;;;6.85;100.00;92909.56;2106901;28;20032;-78
2023/11/15 04:33:24;;;;;;;1.90;0.70;;;;;;;6.71;100.00;92913.09;2106099;28;20437;-77
2023/11/15 04:34:38;;;;;;;3.20;1.97;;;;;;;6.70;100.00;92918.81;2105876;28;20020;-79
2023/11/15 04:35:38;;;;;;;4.97;0.95;;;;;;;6.75;100.00;92924.44;2104573;28;20449;-77
2023/11/15 04:36:39;;;;;;;3.83;0.80;;;;;;;6.66;100.00;92918.09;2106955;28;20111;-80
2023/11/15 04:37:40;;;;;;;1.98;0.77;;;;;;;6.69;100.00;92930.59;2097951;28;20413;-81
2023/11/15 04:40:39;;;;;;;5.57;0.98;;;;;;;6.73;100.00;92934.72;2099269;28;20013;-77
2023/11/15 04:41:39;;;;;;;4.32;0.90;;;;;;;7.02;100.00;92937.84;2103029;28;20022;-77
2023/11/15 04:42:40;;;;;;;5.15;0.82;;;;;;;6.75;100.00;92945.69;2106250;28;20020;-79
2023/11/15 04:43:41;;;;;;;9.02;1.08;;;;;;;6.73;100.00;92947.25;2110833;28;20019;-79
2023/11/15 04:44:45;;;;;;;6.72;1.08;;;;;;;6.84;100.00;92953.19;2106228;28;20069;-79
2023/11/15 04:45:46;;;;;;;2.75;0.88;;;;;;;6.74;100.00;92954.06;2098309;28;20124;-79
2023/11/15 04:46:47;;;;;;;5.53;0.98;;;;;;;6.72;100.00;92951.81;2106431;28;20024;-81
2023/11/15 04:47:48;;;;;;;3.78;1.13;;;;;;;6.91;100.00;92947.81;2107029;28;20483;-80
2023/11/15 04:48:49;;;;;;;2.30;0.70;;;;;;;6.81;100.00;92961.97;2106358;28;20113;-79
2023/11/15 04:49:51;;;;;;;6.10;0.85;;;;;;;6.78;100.00;92960.09;2097883;28;20452;-79
2023/11/15 04:50:54;;;;;;;3.88;0.82;;;;;;;6.75;100.00;92955.56;2106426;28;20031;-78
2023/11/15 04:51:56;;;;;;;1.55;0.80;;;;;;;6.74;100.00;92956.72;2097091;28;20025;-80
2023/11/15 04:52:57;;;;;;;5.10;1.13;;;;;;;6.70;100.00;92969.28;2081386;28;20453;-77
2023/11/15 04:53:58;;;;;;;1.83;0.65;;;;;;;6.59;100.00;92960.66;2098130;28;20028;-79
2023/11/15 04:54:59;;;;;;;4.93;1.15;;;;;;;6.66;100.00;92971.22;2106164;28;20016;-79
2023/11/15 04:56:02;;;;;;;2.58;0.88;;;;;;;6.56;100.00;92975.47;2106130;28;20027;-78
2023/11/15 04:57:03;;;;;;;1.95;0.70;;;;;;;6.67;100.00;92973.50;2106915;28;20430;-81
2023/11/15 04:58:04;;;;;;;3.35;0.77;;;;;;;6.73;100.00;92965.84;2106862;28;20028;-78
2023/11/15 05:01:18;;;;;;;3.95;0.75;;;;;;;6.80;100.00;92963.09;2101062;28;20461;-81
2023/11/15 05:02:19;;;;;;;4.65;0.70;;;;;;;6.79;100.00;92969.56;2105895;28;20033;-78
2023/11/15 05:03:20;;;;;;;4.80;0.90;;;;;;;6.81;100.00;92973.34;2106612;28;20115;-80
2023/11/15 05:04:22;;;;;;;5.80;0.98;;;;;;;6.87;100.00;92978.97;2105277;28;20031;-77
2023/11/15 05:05:23;;;;;;;2.20;0.80;;;;;;;6.68;100.00;92976.91;2089321;28;20035;-78
2023/11/15 05:08:03;;;;;;;2.45;1.02;;;;;;;6.73;100.00;92976.47;2098276;28;20024;-80
2023/11/15 05:09:04;;;;;;;6.18;0.90;;;;;;;6.84;100.00;92974.44;2097734;28;20032;-78
2023/11/15 05:10:06;;;;;;;3.67;0.80;;;;;;;6.90;100.00;92974.78;2097376;28;20020;-81
2023/11/15 05:11:27;;;;;;;3.45;0.70;;;;;;;6.79;100.00;92980.94;2097844;28;20024;-78
2023/11/15 05:13:11;;;;;;;2.78;1.17;;;;;;;6.73;100.00;92968.50;2100348;28;20063;-78
2023/11/15 05:14:13;;;;;;;5.55;1.27;;;;;;;6.84;100.00;92971.03;2095322;28;20055;-78
2023/11/15 05:15:20;;;;;;;3.88;1.40;;;;;;;6.72;100.00;92973.06;2089695;28;20025;-81
2023/11/15 05:17:14;;;;;;;5.15;1.08;;;;;;;6.56;100.00;92962.94;2090633;28;20021;-80
2023/11/15 05:18:15;;;;;;;5.78;2.55;;;;;;;6.61;100.00;92966.34;2096754;28;20086;-79
2023/11/15 05:19:16;;;;;;;7.97;1.33;;;;;;;6.52;100.00;92961.47;2089642;28;20503;-80
2023/11/15 05:20:17;;;;;;;5.78;1.23;;;;;;;6.55;100.00;92966.00;2081208;28;20033;-79
2023/11/15 05:21:18;;;;;;;2.17;0.80;;;;;;;6.44;100.00;92966.09;2086366;28;20535;-79
2023/11/15 05:22:21;;;;;;;2.47;1.00;;;;;;;6.49;100.00;92968.31;2103209;28;20028;-78
2023/11/15 05:23:22;;;;;;;5.55;1.23;;;;;;;6.71;100.00;92968.13;2106747;28;20377;-79
2023/11/15 05:24:23;;;;;;;2.95;0.98;;;;;;;6.68;100.00;92966.28;2106699;28;20024;-79
2023/11/15 05:25:24;;;;;;;6.32;1.30;;;;;;;6.65;100.00;92970.47;2109461;28;20099;-79
2023/11/15 05:26:25;;;;;;;3.15;0.95;;;;;;;6.47;100.00;92970.63;2106018;28;20016;-81
2023/11/15 05:29:24;;;;;;;2.63;1.20;;;;;;;6.40;100.00;92968.00;2113536;28;20033;-78
2023/11/15 05:30:25;;;;;;;7.13;1.10;;;;;;;6.25;100.00;92967.38;2102483;28;20355;-80
2023/11/15 05:33:26;;;;;;;7.35;1.20;;;;;;;6.08;100.00;92975.47;2112664;28;20023;-81
2023/11/15 05:34:27;;;;;;;4.63;1.52;;;;;;;6.05;100.00;92980.41;2108275;28;20468;-80
2023/11/15 05:35:28;;;;;;;4.72;1.30;;;;;;;6.03;100.00;92985.38;2100265;28;20111;-79
2023/11/15 05:36:29;;;;;;;4.85;2.00;;;;;;;6.00;100.00;92983.47;2084303;28;20573;-81
2023/11/15 05:39:27;;;;;;;13.68;4.63;;;;;;;5.95;100.00;92997.16;2111932;28;20388;-79